Time;durP1;ratioP1;P1;durP2;ratioP2;P2;SDS_P1;SDS_P2;PMS_P1;PMS_P2;Temp;Humidity;BMP_temperature;BMP_pressure;BME280_temperature;BME280_humidity;BME280_pressure;Samples;Min_cycle;Max_cycle;Signal;HPM_P1;HPM_P2
2023/06/15 00:02:20;;;;;;;;;;;16.20;99.90;;;;;;5083923;28;20537;-82
2023/06/15 00:04:46;;;;;;;;;;;16.10;99.90;;;;;;5087572;28;20361;-82
2023/06/15 00:07:11;;;;;;;;;;;16.10;99.90;;;;;;5089053;28;19924;-82
2023/06/15 00:09:37;;;;;;;;;;;16.10;99.90;;;;;;5092118;28;19924;-83
2023/06/15 00:12:03;;;;;;;;;;;16.00;99.90;;;;;;5085225;28;20014;-82
2023/06/15 00:14:28;;;;;;;;;;;16.00;99.90;;;;;;5086369;28;19928;-83
2023/06/15 00:16:54;;;;;;;;;;;16.00;99.90;;;;;;5087531;28;19939;-82
2023/06/15 00:19:21;;;;;;;;;;;16.00;99.90;;;;;;5087572;28;19928;-83
2023/06/15 00:21:48;;;;;;;;;;;15.90;99.90;;;;;;5084331;28;20012;-82
2023/06/15 00:24:17;;;;;;;;;;;16.00;99.90;;;;;;5085653;28;19934;-82
2023/06/15 00:26:43;;;;;;;;;;;16.00;99.90;;;;;;5086683;28;20004;-82
2023/06/15 00:29:09;;;;;;;;;;;16.00;99.90;;;;;;5086744;28;20313;-82
2023/06/15 00:31:35;;;;;;;;;;;16.00;99.90;;;;;;5089628;28;19938;-82
2023/06/15 00:34:01;;;;;;;;;;;16.00;99.90;;;;;;5083342;28;20031;-83
2023/06/15 00:36:26;;;;;;;;;;;15.90;99.90;;;;;;5085002;28;20339;-82
2023/06/15 00:38:52;;;;;;;;;;;15.80;99.90;;;;;;5083953;28;20000;-83
2023/06/15 00:41:17;;;;;;;;;;;15.70;99.90;;;;;;5088759;28;20010;-82
2023/06/15 00:43:43;;;;;;;;;;;15.70;99.90;;;;;;5084368;28;19988;-82
2023/06/15 00:46:09;;;;;;;;;;;15.70;99.90;;;;;;5088599;28;19928;-82
2023/06/15 00:48:35;;;;;;;;;;;15.70;99.90;;;;;;5071048;28;20344;-82
2023/06/15 00:51:00;;;;;;;;;;;15.60;99.90;;;;;;5085162;28;20019;-82
2023/06/15 00:53:26;;;;;;;;;;;15.60;99.90;;;;;;5094521;28;20350;-82
2023/06/15 00:55:52;;;;;;;;;;;15.60;99.90;;;;;;5088581;28;19963;-82
2023/06/15 00:58:18;;;;;;;;;;;15.60;99.90;;;;;;5076008;28;19927;-82
2023/06/15 01:00:48;;;;;;;;;;;15.50;99.90;;;;;;5086587;28;19967;-82
2023/06/15 01:03:15;;;;;;;;;;;15.50;99.90;;;;;;5090123;28;20042;-82
2023/06/15 01:05:44;;;;;;;;;;;15.50;99.90;;;;;;5090061;28;19937;-82
2023/06/15 01:08:10;;;;;;;;;;;15.50;99.90;;;;;;5089108;28;19928;-82
2023/06/15 01:10:36;;;;;;;;;;;15.50;99.90;;;;;;5092331;28;20043;-82
2023/06/15 01:13:03;;;;;;;;;;;15.40;99.90;;;;;;5091099;28;20026;-82
2023/06/15 01:15:28;;;;;;;;;;;15.40;99.90;;;;;;5084250;28;20020;-82
2023/06/15 01:17:57;;;;;;;;;;;15.40;99.90;;;;;;5077621;28;20392;-82
2023/06/15 01:20:25;;;;;;;;;;;15.40;99.90;;;;;;5085887;28;19924;-82
2023/06/15 01:22:59;;;;;;;;;;;15.30;99.90;;;;;;5083231;28;19966;-82
2023/06/15 01:25:33;;;;;;;;;;;15.30;99.90;;;;;;5088895;28;19941;-82
2023/06/15 01:28:02;;;;;;;;;;;15.20;99.90;;;;;;5068995;28;19928;-82
2023/06/15 01:30:30;;;;;;;;;;;15.20;99.90;;;;;;5090381;28;19933;-82
2023/06/15 01:32:56;;;;;;;;;;;15.10;99.90;;;;;;5090071;28;19927;-82
2023/06/15 01:35:21;;;;;;;;;;;15.00;99.90;;;;;;5090457;28;20297;-82
2023/06/15 01:37:47;;;;;;;;;;;14.90;99.90;;;;;;5097256;28;20384;-82
2023/06/15 01:40:13;;;;;;;;;;;14.80;99.90;;;;;;5089856;28;20006;-82
2023/06/15 01:42:39;;;;;;;;;;;14.80;99.90;;;;;;5097231;28;19974;-82
2023/06/15 01:45:06;;;;;;;;;;;14.80;99.90;;;;;;5088570;28;20384;-82
2023/06/15 01:47:31;;;;;;;;;;;14.80;99.90;;;;;;5093740;28;19976;-82
2023/06/15 01:49:58;;;;;;;;;;;14.80;99.90;;;;;;5094620;28;20046;-82
2023/06/15 01:52:23;;;;;;;;;;;14.80;99.90;;;;;;5070610;28;20022;-82
2023/06/15 01:54:49;;;;;;;;;;;14.80;99.90;;;;;;5098237;28;19934;-82
2023/06/15 01:57:18;;;;;;;;;;;14.70;99.90;;;;;;5085766;28;19943;-82
2023/06/15 01:59:43;;;;;;;;;;;14.80;99.90;;;;;;5088530;28;20381;-82
2023/06/15 02:02:09;;;;;;;;;;;14.80;99.90;;;;;;5092920;28;19942;-82
2023/06/15 02:04:34;;;;;;;;;;;14.70;99.90;;;;;;5087089;28;20011;-83
2023/06/15 02:07:00;;;;;;;;;;;14.60;99.90;;;;;;5091874;28;19928;-82
2023/06/15 02:09:26;;;;;;;;;;;14.60;99.90;;;;;;5094476;28;19971;-82
2023/06/15 02:11:51;;;;;;;;;;;14.60;99.90;;;;;;5093360;28;19935;-82
2023/06/15 02:14:17;;;;;;;;;;;14.50;99.90;;;;;;5092404;28;19928;-82
2023/06/15 02:16:43;;;;;;;;;;;14.50;99.90;;;;;;5089214;28;19934;-82
2023/06/15 02:19:09;;;;;;;;;;;14.40;99.90;;;;;;5092374;28;19924;-82
2023/06/15 02:21:35;;;;;;;;;;;14.40;99.90;;;;;;5076711;28;19928;-82
2023/06/15 02:24:00;;;;;;;;;;;14.40;99.90;;;;;;5092769;28;19931;-82
2023/06/15 02:26:26;;;;;;;;;;;14.40;99.90;;;;;;5094299;28;20358;-82
2023/06/15 02:28:51;;;;;;;;;;;14.50;99.90;;;;;;5085342;28;20290;-82
2023/06/15 02:31:17;;;;;;;;;;;14.50;99.90;;;;;;5092002;28;20285;-82
2023/06/15 02:33:42;;;;;;;;;;;14.50;99.90;;;;;;5092921;28;19939;-82
2023/06/15 02:36:08;;;;;;;;;;;14.60;99.90;;;;;;5086489;28;19928;-81
2023/06/15 02:38:37;;;;;;;;;;;14.60;99.90;;;;;;5094952;28;20483;-82
2023/06/15 02:41:02;;;;;;;;;;;14.40;99.90;;;;;;5090772;28;19973;-81
2023/06/15 02:43:28;;;;;;;;;;;14.30;99.90;;;;;;5098880;28;19924;-81
2023/06/15 02:45:54;;;;;;;;;;;14.30;99.90;;;;;;5094773;28;20571;-82
2023/06/15 02:48:19;;;;;;;;;;;14.30;99.90;;;;;;5090720;28;19935;-82
2023/06/15 02:50:45;;;;;;;;;;;14.30;99.90;;;;;;5099317;28;19927;-82
2023/06/15 02:53:12;;;;;;;;;;;14.30;99.90;;;;;;5088263;28;20435;-82
2023/06/15 02:55:38;;;;;;;;;;;14.30;99.90;;;;;;5095339;28;19923;-81
2023/06/15 02:58:03;;;;;;;;;;;14.40;99.90;;;;;;5096069;28;19932;-82
2023/06/15 03:00:30;;;;;;;;;;;14.50;99.90;;;;;;5089957;28;19935;-82
2023/06/15 03:02:55;;;;;;;;;;;14.40;99.90;;;;;;5095420;28;19927;-82
2023/06/15 03:05:22;;;;;;;;;;;14.40;99.90;;;;;;5091388;28;19984;-82
2023/06/15 03:07:48;;;;;;;;;;;14.50;99.90;;;;;;5094235;28;19932;-81
2023/06/15 03:10:13;;;;;;;;;;;14.50;99.90;;;;;;5094969;28;19932;-82
2023/06/15 03:12:39;;;;;;;;;;;14.50;99.90;;;;;;5087550;28;19971;-82
2023/06/15 03:15:08;;;;;;;;;;;14.50;99.90;;;;;;5091008;28;19934;-82
2023/06/15 03:17:34;;;;;;;;;;;14.50;99.90;;;;;;5091875;28;20385;-82
2023/06/15 03:20:00;;;;;;;;;;;14.50;99.90;;;;;;5090465;28;19923;-82
2023/06/15 03:22:26;;;;;;;;;;;14.50;99.90;;;;;;5093290;28;19934;-81
2023/06/15 03:24:54;;;;;;;;;;;14.50;99.90;;;;;;5072340;28;19932;-82
2023/06/15 03:27:20;;;;;;;;;;;14.60;99.90;;;;;;5085504;28;19981;-83
2023/06/15 03:29:49;;;;;;;;;;;14.50;99.90;;;;;;5087771;28;19928;-82
2023/06/15 03:32:15;;;;;;;;;;;14.60;99.90;;;;;;5091070;28;20565;-81
2023/06/15 03:34:40;;;;;;;;;;;14.60;99.90;;;;;;5093190;28;19959;-82
2023/06/15 03:37:06;;;;;;;;;;;14.50;99.90;;;;;;5089697;28;20384;-82
2023/06/15 03:39:32;;;;;;;;;;;14.60;99.90;;;;;;5092703;28;19950;-82
2023/06/15 03:41:57;;;;;;;;;;;14.60;99.90;;;;;;5101258;28;19928;-82
2023/06/15 03:44:23;;;;;;;;;;;14.60;99.90;;;;;;5091966;28;20355;-83
2023/06/15 03:46:49;;;;;;;;;;;14.60;99.90;;;;;;5092148;28;19985;-82
2023/06/15 03:49:14;;;;;;;;;;;14.70;99.90;;;;;;5088896;28;19935;-82
2023/06/15 03:51:40;;;;;;;;;;;14.70;99.90;;;;;;5092905;28;19924;-82
2023/06/15 03:54:06;;;;;;;;;;;14.70;99.90;;;;;;5094029;28;19935;-82
2023/06/15 03:56:32;;;;;;;;;;;14.70;99.90;;;;;;5097796;28;19976;-82
2023/06/15 03:58:58;;;;;;;;;;;14.70;99.90;;;;;;5091969;28;19934;-82
2023/06/15 04:01:24;;;;;;;;;;;14.70;99.90;;;;;;5090459;28;19932;-82
2023/06/15 04:03:50;;;;;;;;;;;14.80;99.90;;;;;;5089882;28;20014;-82
2023/06/15 04:06:16;;;;;;;;;;;14.80;99.90;;;;;;5087353;28;20003;-83
2023/06/15 04:08:42;;;;;;;;;;;14.80;99.90;;;;;;5089823;28;19962;-82
2023/06/15 04:11:07;;;;;;;;;;;14.80;99.90;;;;;;5089273;28;19924;-83
2023/06/15 04:13:33;;;;;;;;;;;14.80;99.90;;;;;;5093909;28;19927;-83
2023/06/15 04:15:58;;;;;;;;;;;14.80;99.90;;;;;;5092849;28;19943;-83
2023/06/15 04:18:24;;;;;;;;;;;14.80;99.90;;;;;;5084177;28;19928;-83
2023/06/15 04:20:50;;;;;;;;;;;14.90;99.90;;;;;;5093473;28;19977;-83
2023/06/15 04:23:15;;;;;;;;;;;14.90;99.90;;;;;;5091485;28;19927;-83
2023/06/15 04:25:47;;;;;;;;;;;15.00;99.90;;;;;;5092367;28;19925;-83
2023/06/15 04:28:13;;;;;;;;;;;15.00;99.90;;;;;;5094013;28;19931;-83
2023/06/15 04:30:45;;;;;;;;;;;15.00;99.90;;;;;;5094693;28;20390;-82
2023/06/15 04:33:14;;;;;;;;;;;15.10;99.90;;;;;;5074739;28;19930;-82
2023/06/15 04:35:40;;;;;;;;;;;15.10;99.90;;;;;;5095718;28;19949;-83
2023/06/15 04:38:06;;;;;;;;;;;15.20;99.90;;;;;;5083644;28;19935;-82
2023/06/15 04:40:31;;;;;;;;;;;15.40;99.90;;;;;;5094709;28;19935;-83
2023/06/15 04:43:02;;;;;;;;;;;16.60;99.90;;;;;;5089156;28;19934;-83
2023/06/15 04:45:28;;;;;;;;;;;18.30;99.90;;;;;;5087730;28;19928;-83
2023/06/15 04:47:54;;;;;;;;;;;19.50;99.90;;;;;;5091425;28;19977;-82
2023/06/15 04:50:21;;;;;;;;;;;19.40;99.90;;;;;;5071490;28;19923;-84
2023/06/15 04:52:47;;;;;;;;;;;21.30;99.90;;;;;;5088394;28;19928;-83
2023/06/15 04:55:12;;;;;;;;;;;22.30;99.90;;;;;;5088819;28;20282;-84
2023/06/15 04:57:38;;;;;;;;;;;23.10;99.90;;;;;;5091150;28;19924;-83
2023/06/15 05:00:09;;;;;;;;;;;23.70;99.90;;;;;;5085540;28;19962;-83
2023/06/15 05:02:35;;;;;;;;;;;24.30;99.90;;;;;;5083324;28;19951;-84
2023/06/15 05:05:01;;;;;;;;;;;24.60;99.90;;;;;;5092059;28;20304;-84
2023/06/15 05:07:27;;;;;;;;;;;25.20;99.90;;;;;;5089621;28;19925;-84
2023/06/15 05:09:52;;;;;;;;;;;25.50;99.90;;;;;;5092124;28;19928;-84
2023/06/15 05:12:18;;;;;;;;;;;25.90;99.70;;;;;;5097301;28;20703;-84
2023/06/15 05:14:43;;;;;;;;;;;26.20;98.40;;;;;;5100407;28;20076;-84
2023/06/15 05:17:09;;;;;;;;;;;26.20;97.90;;;;;;5099826;28;19954;-83
2023/06/15 05:19:34;;;;;;;;;;;26.00;97.60;;;;;;5100659;28;19932;-84
2023/06/15 05:22:01;;;;;;;;;;;26.90;96.80;;;;;;5098091;28;19935;-84
2023/06/15 05:24:26;;;;;;;;;;;27.10;96.60;;;;;;5091585;28;19924;-84
2023/06/15 05:26:52;;;;;;;;;;;27.60;95.40;;;;;;5082764;28;20022;-84
2023/06/15 05:29:18;;;;;;;;;;;26.70;95.50;;;;;;5099451;28;19931;-85
2023/06/15 05:31:44;;;;;;;;;;;27.50;95.30;;;;;;5101434;28;20048;-85
2023/06/15 05:34:09;;;;;;;;;;;27.40;94.40;;;;;;5071391;28;20407;-85
2023/06/15 05:36:35;;;;;;;;;;;27.70;94.10;;;;;;5081176;28;19980;-85
2023/06/15 05:39:01;;;;;;;;;;;27.90;94.30;;;;;;5090084;28;19927;-84
2023/06/15 05:41:26;;;;;;;;;;;28.20;93.60;;;;;;5095627;28;20282;-84
2023/06/15 05:43:52;;;;;;;;;;;28.10;93.60;;;;;;5096466;28;19992;-84
2023/06/15 05:46:17;;;;;;;;;;;27.60;92.90;;;;;;5093956;28;19931;-84
2023/06/15 05:48:43;;;;;;;;;;;25.60;93.10;;;;;;5093808;28;19932;-86
2023/06/15 05:51:08;;;;;;;;;;;23.80;94.30;;;;;;5093436;28;19935;-84
2023/06/15 05:53:34;;;;;;;;;;;23.40;96.40;;;;;;5077909;28;19928;-85
2023/06/15 05:56:00;;;;;;;;;;;23.50;96.40;;;;;;5080943;28;19951;-84
2023/06/15 05:58:25;;;;;;;;;;;23.10;95.90;;;;;;5096548;28;19932;-85
2023/06/15 06:00:51;;;;;;;;;;;22.80;96.00;;;;;;5090627;28;19928;-85
2023/06/15 06:03:16;;;;;;;;;;;23.00;96.60;;;;;;5092137;28;19924;-83
2023/06/15 06:05:42;;;;;;;;;;;22.70;95.00;;;;;;5097709;28;19935;-86
2023/06/15 06:08:07;;;;;;;;;;;23.00;95.50;;;;;;5092503;28;20564;-85
2023/06/15 06:10:33;;;;;;;;;;;22.20;95.70;;;;;;5092255;28;19932;-85
2023/06/15 06:12:59;;;;;;;;;;;23.20;96.90;;;;;;5065894;28;19931;-85
2023/06/15 06:15:25;;;;;;;;;;;22.20;95.20;;;;;;5071852;28;19938;-85
2023/06/15 06:17:51;;;;;;;;;;;22.40;97.20;;;;;;5094119;28;19931;-84
2023/06/15 06:20:16;;;;;;;;;;;22.80;97.70;;;;;;5091136;28;20380;-84
2023/06/15 06:22:42;;;;;;;;;;;23.20;96.70;;;;;;5103577;28;20485;-84
2023/06/15 06:25:08;;;;;;;;;;;22.70;96.10;;;;;;5094485;28;20426;-83
2023/06/15 06:27:33;;;;;;;;;;;23.20;96.40;;;;;;5100853;28;20349;-83
2023/06/15 06:29:59;;;;;;;;;;;22.70;94.40;;;;;;5098605;28;19924;-83
2023/06/15 06:32:25;;;;;;;;;;;23.50;97.00;;;;;;5098941;28;20068;-83
2023/06/15 06:34:50;;;;;;;;;;;23.70;95.40;;;;;;5080425;28;20288;-84
2023/06/15 06:37:16;;;;;;;;;;;23.80;95.50;;;;;;5097752;28;19968;-85
2023/06/15 06:39:41;;;;;;;;;;;23.80;94.50;;;;;;5098953;28;19983;-83
2023/06/15 06:42:07;;;;;;;;;;;24.00;95.20;;;;;;5097879;28;19928;-82
2023/06/15 06:44:32;;;;;;;;;;;23.90;94.90;;;;;;5097364;28;20395;-83
2023/06/15 06:46:59;;;;;;;;;;;24.10;94.70;;;;;;5099417;28;20006;-84
2023/06/15 06:49:25;;;;;;;;;;;24.40;95.10;;;;;;5094108;28;19955;-84
2023/06/15 06:51:50;;;;;;;;;;;24.60;94.70;;;;;;5100311;28;21295;-84
2023/06/15 06:54:16;;;;;;;;;;;24.80;93.70;;;;;;5097269;28;20053;-85
2023/06/15 06:56:41;;;;;;;;;;;23.70;93.10;;;;;;5097721;28;19928;-84
2023/06/15 06:59:07;;;;;;;;;;;23.50;93.40;;;;;;5079604;28;19957;-83
2023/06/15 07:01:32;;;;;;;;;;;24.10;93.00;;;;;;5097818;28;19931;-85
2023/06/15 07:03:58;;;;;;;;;;;24.20;94.50;;;;;;5099145;28;19928;-86
2023/06/15 07:06:23;;;;;;;;;;;24.60;95.20;;;;;;5082098;28;19932;-84
2023/06/15 07:08:49;;;;;;;;;;;24.80;95.20;;;;;;5097646;28;19923;-84
2023/06/15 07:11:15;;;;;;;;;;;25.10;94.80;;;;;;5092877;28;19932;-84
2023/06/15 07:13:41;;;;;;;;;;;24.90;93.70;;;;;;5096951;28;19931;-85
2023/06/15 07:16:06;;;;;;;;;;;24.80;93.00;;;;;;5100502;28;19928;-84
2023/06/15 07:18:32;;;;;;;;;;;25.10;93.60;;;;;;5097047;28;19931;-84
2023/06/15 07:20:58;;;;;;;;;;;25.30;93.20;;;;;;5094983;28;19932;-85
2023/06/15 07:23:24;;;;;;;;;;;25.20;93.40;;;;;;5097642;28;19928;-85
2023/06/15 07:25:50;;;;;;;;;;;24.60;93.60;;;;;;5096956;28;20072;-85
2023/06/15 07:28:16;;;;;;;;;;;24.90;92.20;;;;;;5100167;28;20028;-85
2023/06/15 07:30:43;;;;;;;;;;;25.20;93.50;;;;;;5096699;28;20379;-82
2023/06/15 07:33:09;;;;;;;;;;;25.40;93.40;;;;;;5080860;28;19924;-85
2023/06/15 07:35:35;;;;;;;;;;;25.10;91.90;;;;;;5095174;28;20016;-85
2023/06/15 07:38:00;;;;;;;;;;;25.50;92.50;;;;;;5096314;28;20435;-85
2023/06/15 07:40:26;;;;;;;;;;;25.40;92.90;;;;;;5078262;28;19924;-85
2023/06/15 07:42:51;;;;;;;;;;;25.60;92.70;;;;;;5084740;28;19935;-86
2023/06/15 07:45:17;;;;;;;;;;;25.60;91.60;;;;;;5097181;28;19947;-86
2023/06/15 07:47:42;;;;;;;;;;;25.20;90.40;;;;;;5076079;28;19928;-85
2023/06/15 07:50:08;;;;;;;;;;;25.60;91.20;;;;;;5099956;28;19935;-85
2023/06/15 07:52:34;;;;;;;;;;;25.70;91.90;;;;;;5092658;28;19928;-85
2023/06/15 07:54:59;;;;;;;;;;;25.70;92.50;;;;;;5098233;28;20410;-84
2023/06/15 07:57:26;;;;;;;;;;;26.10;92.20;;;;;;5094739;28;20019;-85
2023/06/15 07:59:52;;;;;;;;;;;26.00;90.10;;;;;;5097210;28;19928;-86
2023/06/15 08:02:18;;;;;;;;;;;25.80;88.90;;;;;;5091809;28;19930;-87
2023/06/15 08:04:43;;;;;;;;;;;25.70;90.70;;;;;;5085850;28;20101;-86
2023/06/15 08:07:09;;;;;;;;;;;25.80;91.30;;;;;;5090763;28;19923;-85
2023/06/15 08:09:34;;;;;;;;;;;26.00;91.80;;;;;;5059520;28;19939;-85
2023/06/15 08:12:01;;;;;;;;;;;25.30;90.60;;;;;;5092558;28;19928;-86
2023/06/15 08:14:27;;;;;;;;;;;25.90;90.90;;;;;;5094409;28;19928;-85
2023/06/15 08:16:52;;;;;;;;;;;25.80;90.50;;;;;;5097212;28;21387;-85
2023/06/15 08:19:18;;;;;;;;;;;26.20;90.90;;;;;;5078782;28;19939;-85
2023/06/15 08:21:43;;;;;;;;;;;26.00;90.30;;;;;;5097717;28;19951;-84
2023/06/15 08:24:09;;;;;;;;;;;26.40;90.90;;;;;;5099260;28;19939;-86
2023/06/15 08:26:34;;;;;;;;;;;25.90;88.00;;;;;;5094949;28;20501;-85
2023/06/15 08:29:01;;;;;;;;;;;25.90;90.30;;;;;;5093815;28;20069;-85
2023/06/15 08:31:27;;;;;;;;;;;26.20;90.50;;;;;;5093355;28;19935;-84
2023/06/15 08:33:53;;;;;;;;;;;26.70;89.10;;;;;;5079287;28;19934;-86
2023/06/15 08:36:18;;;;;;;;;;;26.60;89.20;;;;;;5096719;28;19928;-86
2023/06/15 08:38:44;;;;;;;;;;;26.90;87.90;;;;;;5101506;28;19932;-86
2023/06/15 08:41:11;;;;;;;;;;;26.10;87.50;;;;;;5101205;28;20026;-86
2023/06/15 08:43:37;;;;;;;;;;;26.90;86.80;;;;;;5101852;28;19928;-85
2023/06/15 08:46:03;;;;;;;;;;;26.70;88.30;;;;;;5100335;28;19976;-84
2023/06/15 08:48:31;;;;;;;;;;;27.00;89.20;;;;;;5102036;28;20259;-85
2023/06/15 08:50:56;;;;;;;;;;;26.50;88.20;;;;;;5082021;28;20571;-86
2023/06/15 08:53:23;;;;;;;;;;;26.90;84.20;;;;;;5102612;28;19931;-84
2023/06/15 08:55:49;;;;;;;;;;;26.90;83.60;;;;;;5101876;28;20011;-85
2023/06/15 08:58:15;;;;;;;;;;;26.70;86.20;;;;;;5099312;28;19974;-85
2023/06/15 09:00:41;;;;;;;;;;;26.60;83.30;;;;;;5096283;28;20021;-85
2023/06/15 09:03:08;;;;;;;;;;;26.70;86.10;;;;;;5105210;28;19977;-84
2023/06/15 09:05:33;;;;;;;;;;;26.80;85.90;;;;;;5084753;28;19928;-86
2023/06/15 09:08:03;;;;;;;;;;;26.90;84.70;;;;;;5101025;28;19930;-85
2023/06/15 09:10:29;;;;;;;;;;;27.20;86.80;;;;;;5100386;28;19927;-87
2023/06/15 09:12:55;;;;;;;;;;;26.80;84.50;;;;;;5102207;28;19939;-86
2023/06/15 09:15:22;;;;;;;;;;;27.10;85.10;;;;;;5097606;28;19931;-83
2023/06/15 09:17:52;;;;;;;;;;;25.70;80.00;;;;;;5080733;28;19928;-86
2023/06/15 09:20:18;;;;;;;;;;;26.40;82.00;;;;;;5084641;28;19928;-85
2023/06/15 09:22:45;;;;;;;;;;;27.00;84.30;;;;;;5100328;28;20063;-89
2023/06/15 09:25:12;;;;;;;;;;;27.60;84.50;;;;;;5100618;28;19980;-87
2023/06/15 09:27:37;;;;;;;;;;;27.50;80.90;;;;;;5099228;28;19932;-85
2023/06/15 09:30:03;;;;;;;;;;;27.60;83.30;;;;;;5096793;28;19935;-87
2023/06/15 09:32:30;;;;;;;;;;;27.60;84.60;;;;;;5096944;28;19924;-86
2023/06/15 09:34:58;;;;;;;;;;;27.30;82.50;;;;;;5100385;28;19928;-87
2023/06/15 09:37:25;;;;;;;;;;;27.30;80.90;;;;;;5095499;28;19927;-86
2023/06/15 09:39:52;;;;;;;;;;;27.70;79.00;;;;;;5099808;28;19924;-88
2023/06/15 09:42:18;;;;;;;;;;;28.10;81.50;;;;;;5096180;28;20452;-87
2023/06/15 09:44:43;;;;;;;;;;;27.70;80.20;;;;;;5103057;28;20007;-85
2023/06/15 09:47:15;;;;;;;;;;;26.50;76.60;;;;;;5099553;28;19928;-86
2023/06/15 09:49:44;;;;;;;;;;;27.40;80.30;;;;;;5097475;28;19924;-85
2023/06/15 09:52:11;;;;;;;;;;;26.90;79.70;;;;;;5099679;28;20086;-86
2023/06/15 09:54:38;;;;;;;;;;;27.10;78.90;;;;;;5100048;28;20369;-85
2023/06/15 09:57:04;;;;;;;;;;;27.60;81.50;;;;;;5099879;28;19947;-84
2023/06/15 09:59:30;;;;;;;;;;;27.50;79.60;;;;;;5098793;28;20584;-87
2023/06/15 10:01:55;;;;;;;;;;;28.20;81.60;;;;;;5097625;28;19928;-86
2023/06/15 10:04:24;;;;;;;;;;;27.50;80.20;;;;;;5102111;28;19928;-84
2023/06/15 10:06:51;;;;;;;;;;;27.20;77.00;;;;;;5097946;28;20443;-85
2023/06/15 10:09:21;;;;;;;;;;;27.50;78.20;;;;;;5103839;28;19927;-86
2023/06/15 10:11:48;;;;;;;;;;;27.50;78.30;;;;;;5101695;28;19975;-86
2023/06/15 10:14:28;;;;;;;;;;;27.20;77.60;;;;;;5100136;28;19957;-85
2023/06/15 10:16:59;;;;;;;;;;;27.30;76.10;;;;;;5099537;28;19935;-87
2023/06/15 10:19:25;;;;;;;;;;;27.90;77.00;;;;;;5100768;28;19959;-88
2023/06/15 10:21:51;;;;;;;;;;;27.60;75.60;;;;;;5096271;28;20042;-86
2023/06/15 10:24:19;;;;;;;;;;;28.30;77.70;;;;;;5097882;28;19962;-87
2023/06/15 10:26:45;;;;;;;;;;;28.40;78.50;;;;;;5077747;28;19931;-85
2023/06/15 10:29:18;;;;;;;;;;;27.90;75.60;;;;;;5099687;28;19924;-84
2023/06/15 10:31:49;;;;;;;;;;;28.10;75.40;;;;;;5092412;28;19958;-86
2023/06/15 10:34:24;;;;;;;;;;;28.30;76.50;;;;;;5099895;28;19927;-86
2023/06/15 10:36:57;;;;;;;;;;;26.60;72.70;;;;;;5098819;28;20015;-87
2023/06/15 10:39:26;;;;;;;;;;;26.10;76.50;;;;;;5099442;28;19962;-85
2023/06/15 10:41:58;;;;;;;;;;;27.00;76.40;;;;;;5095210;28;19927;-85
2023/06/15 10:44:32;;;;;;;;;;;28.00;75.50;;;;;;5095129;28;19924;-87
2023/06/15 10:47:08;;;;;;;;;;;27.50;77.50;;;;;;5076876;28;19923;-83
2023/06/15 10:49:34;;;;;;;;;;;27.90;77.30;;;;;;5097650;28;20038;-85
2023/06/15 10:52:01;;;;;;;;;;;27.80;77.00;;;;;;5096508;28;20035;-86
2023/06/15 10:54:27;;;;;;;;;;;27.90;72.90;;;;;;5097116;28;19931;-85
2023/06/15 10:56:57;;;;;;;;;;;28.50;76.80;;;;;;5097150;28;19927;-85
2023/06/15 10:59:45;;;;;;;;;;;28.70;75.50;;;;;;5091647;28;20380;-87
2023/06/15 11:02:26;;;;;;;;;;;28.20;73.10;;;;;;5086391;28;19935;-89
2023/06/15 11:04:52;;;;;;;;;;;27.40;74.80;;;;;;5094937;28;19928;-86
2023/06/15 11:07:27;;;;;;;;;;;27.20;74.00;;;;;;5094696;28;20460;-85
2023/06/15 11:09:55;;;;;;;;;;;28.20;75.60;;;;;;5100072;28;19931;-85
2023/06/15 11:12:37;;;;;;;;;;;28.20;71.50;;;;;;5095996;28;19979;-84
2023/06/15 11:15:04;;;;;;;;;;;28.70;75.90;;;;;;5092684;28;19924;-84
2023/06/15 11:17:30;;;;;;;;;;;29.00;74.80;;;;;;5096662;28;19978;-85
2023/06/15 11:19:56;;;;;;;;;;;28.20;73.30;;;;;;5081773;28;20027;-85
2023/06/15 11:22:27;;;;;;;;;;;28.60;71.90;;;;;;5079688;28;20027;-85
2023/06/15 11:24:54;;;;;;;;;;;27.80;69.50;;;;;;5080565;28;19924;-85
2023/06/15 11:27:22;;;;;;;;;;;28.10;72.30;;;;;;5092623;28;19928;-85
2023/06/15 11:29:53;;;;;;;;;;;29.10;72.90;;;;;;5094849;28;19986;-85
2023/06/15 11:32:24;;;;;;;;;;;28.30;67.90;;;;;;5095415;28;19927;-85
2023/06/15 11:34:54;;;;;;;;;;;27.40;68.60;;;;;;5076152;28;20470;-84
2023/06/15 11:37:22;;;;;;;;;;;28.70;74.80;;;;;;5095170;28;20024;-83
2023/06/15 11:39:48;;;;;;;;;;;29.30;70.70;;;;;;5094141;28;20013;-85
2023/06/15 11:42:14;;;;;;;;;;;28.40;71.10;;;;;;5095672;28;20024;-82
2023/06/15 11:44:41;;;;;;;;;;;29.10;70.40;;;;;;5096955;28;20480;-82
2023/06/15 11:47:08;;;;;;;;;;;28.20;66.60;;;;;;5104124;28;20016;-83
2023/06/15 11:49:35;;;;;;;;;;;27.90;68.70;;;;;;5076007;28;19977;-83
2023/06/15 11:52:01;;;;;;;;;;;28.40;68.60;;;;;;5097781;28;19928;-84
2023/06/15 11:54:28;;;;;;;;;;;28.40;69.50;;;;;;5097177;28;19935;-82
2023/06/15 11:56:55;;;;;;;;;;;27.10;64.20;;;;;;5096926;28;19964;-83
2023/06/15 11:59:21;;;;;;;;;;;27.50;69.50;;;;;;5100045;28;19932;-84
2023/06/15 12:01:47;;;;;;;;;;;27.80;68.10;;;;;;5095778;28;19924;-85
2023/06/15 12:04:13;;;;;;;;;;;28.00;66.70;;;;;;5099740;28;20620;-84
2023/06/15 12:06:42;;;;;;;;;;;28.20;66.60;;;;;;5079746;28;19928;-84
2023/06/15 12:09:08;;;;;;;;;;;27.40;62.90;;;;;;5091588;28;19947;-85
2023/06/15 12:11:34;;;;;;;;;;;28.40;64.80;;;;;;5098526;28;19934;-86
2023/06/15 12:14:07;;;;;;;;;;;27.80;63.90;;;;;;5091691;28;19928;-87
2023/06/15 12:16:32;;;;;;;;;;;29.00;69.90;;;;;;5085807;28;19966;-83
2023/06/15 12:18:58;;;;;;;;;;;27.60;66.30;;;;;;5093348;28;20447;-84
2023/06/15 12:21:24;;;;;;;;;;;29.20;66.80;;;;;;5094951;28;20022;-85
2023/06/15 12:23:50;;;;;;;;;;;29.80;67.90;;;;;;5096831;28;19928;-85
2023/06/15 12:26:19;;;;;;;;;;;29.30;64.80;;;;;;5078503;28;20409;-85
2023/06/15 12:28:49;;;;;;;;;;;29.30;69.30;;;;;;5097472;28;19928;-85
2023/06/15 12:31:15;;;;;;;;;;;29.50;67.20;;;;;;5093769;28;19959;-85
2023/06/15 12:33:42;;;;;;;;;;;28.60;66.50;;;;;;5093848;28;20412;-84
2023/06/15 12:36:12;;;;;;;;;;;28.90;67.60;;;;;;5095856;28;19967;-85
2023/06/15 12:38:39;;;;;;;;;;;27.80;63.10;;;;;;5095579;28;19977;-84
2023/06/15 12:41:11;;;;;;;;;;;28.10;66.10;;;;;;5094053;28;20404;-83
2023/06/15 12:43:36;;;;;;;;;;;28.10;65.30;;;;;;5093029;28;19928;-84
2023/06/15 12:46:02;;;;;;;;;;;28.80;66.90;;;;;;5097309;28;19973;-84
2023/06/15 12:48:28;;;;;;;;;;;28.70;64.10;;;;;;5096431;28;20034;-86
2023/06/15 12:50:53;;;;;;;;;;;29.10;64.10;;;;;;5081408;28;19981;-83
2023/06/15 12:53:20;;;;;;;;;;;29.70;67.40;;;;;;5093826;28;20007;-85
2023/06/15 12:55:46;;;;;;;;;;;30.00;67.60;;;;;;5093809;28;19932;-83
2023/06/15 12:58:12;;;;;;;;;;;28.10;60.40;;;;;;5099380;28;19981;-84
2023/06/15 13:00:38;;;;;;;;;;;27.70;61.20;;;;;;5091256;28;19931;-84
2023/06/15 13:03:06;;;;;;;;;;;28.40;65.40;;;;;;5097222;28;20875;-84
2023/06/15 13:05:33;;;;;;;;;;;29.40;64.90;;;;;;5096624;28;19954;-84
2023/06/15 13:07:59;;;;;;;;;;;29.10;63.00;;;;;;5081341;28;20376;-85
2023/06/15 13:10:25;;;;;;;;;;;28.90;62.60;;;;;;5074778;28;19927;-85
2023/06/15 13:12:50;;;;;;;;;;;28.90;60.60;;;;;;5097713;28;20415;-84
2023/06/15 13:15:16;;;;;;;;;;;29.30;64.10;;;;;;5096962;28;20515;-81
2023/06/15 13:17:42;;;;;;;;;;;28.50;60.70;;;;;;5095466;28;19924;-83
2023/06/15 13:20:08;;;;;;;;;;;28.60;60.70;;;;;;5096582;28;19924;-83
2023/06/15 13:22:34;;;;;;;;;;;28.50;62.70;;;;;;5099555;28;19928;-83
2023/06/15 13:25:00;;;;;;;;;;;28.80;63.10;;;;;;5096573;28;20288;-84
2023/06/15 13:27:25;;;;;;;;;;;29.00;63.30;;;;;;5102092;28;19935;-82
2023/06/15 13:29:51;;;;;;;;;;;28.90;63.60;;;;;;5095547;28;19928;-83
2023/06/15 13:32:17;;;;;;;;;;;29.00;61.90;;;;;;5099643;28;19963;-85
2023/06/15 13:34:43;;;;;;;;;;;29.00;61.80;;;;;;5101469;28;19931;-82
2023/06/15 13:37:09;;;;;;;;;;;29.20;62.80;;;;;;5100770;28;20384;-84
2023/06/15 13:39:35;;;;;;;;;;;28.40;64.00;;;;;;5100358;28;19985;-84
2023/06/15 13:42:00;;;;;;;;;;;29.70;64.50;;;;;;5085336;28;19939;-83
2023/06/15 13:44:26;;;;;;;;;;;30.10;66.90;;;;;;5098033;28;19936;-87
2023/06/15 13:46:51;;;;;;;;;;;29.10;63.90;;;;;;5100323;28;19933;-83
2023/06/15 13:49:17;;;;;;;;;;;27.20;61.60;;;;;;5099829;28;20041;-85
2023/06/15 13:51:43;;;;;;;;;;;27.50;66.20;;;;;;5088144;28;19928;-84
2023/06/15 13:54:08;;;;;;;;;;;28.20;65.60;;;;;;5092926;28;19981;-84
2023/06/15 13:56:34;;;;;;;;;;;28.80;67.20;;;;;;5093004;28;19927;-84
2023/06/15 13:59:03;;;;;;;;;;;29.40;67.50;;;;;;5093147;28;19929;-85
2023/06/15 14:01:29;;;;;;;;;;;29.20;64.70;;;;;;5095332;28;20022;-85
2023/06/15 14:03:54;;;;;;;;;;;29.50;65.00;;;;;;5095752;28;20741;-85
2023/06/15 14:06:20;;;;;;;;;;;29.20;63.90;;;;;;5096049;28;20519;-84
2023/06/15 14:08:46;;;;;;;;;;;29.90;67.20;;;;;;5075834;28;19993;-83
2023/06/15 14:11:13;;;;;;;;;;;27.60;62.70;;;;;;5097386;28;19924;-84
2023/06/15 14:13:38;;;;;;;;;;;26.80;65.40;;;;;;5089701;28;20342;-82